Time;durP1;ratioP1;P1;durP2;ratioP2;P2;SDS_P1;SDS_P2;PMS_P1;PMS_P2;Temp;Humidity;BMP_temperature;BMP_pressure;BME280_temperature;BME280_humidity;BME280_pressure;Samples;Min_cycle;Max_cycle;Signal;HPM_P1;HPM_P2
2023/02/24 00:01:43;;;;;;;39.47;16.80;;;7.10;99.90;;;;;;5110644;28;20205;-73
2023/02/24 00:04:11;;;;;;;37.13;17.13;;;7.10;99.90;;;;;;5098885;28;20203;-73
2023/02/24 00:06:42;;;;;;;36.83;15.57;;;7.10;99.90;;;;;;5089879;28;20294;-73
2023/02/24 00:09:14;;;;;;;32.63;14.27;;;7.10;99.90;;;;;;5089546;28;20260;-73
2023/02/24 00:11:44;;;;;;;31.97;14.67;;;7.10;99.90;;;;;;5102492;28;20217;-73
2023/02/24 00:14:15;;;;;;;39.57;16.10;;;7.00;99.90;;;;;;5109709;28;20206;-73
2023/02/24 00:16:43;;;;;;;36.93;15.20;;;7.00;99.90;;;;;;5110221;28;20202;-73
2023/02/24 00:19:13;;;;;;;32.47;15.07;;;7.00;99.90;;;;;;5119425;27;20869;-73
2023/02/24 00:21:41;;;;;;;36.43;14.97;;;7.10;99.90;;;;;;5120540;27;20202;-73
2023/02/24 00:24:08;;;;;;;36.30;14.73;;;7.00;99.90;;;;;;5103720;28;20201;-73
2023/02/24 00:26:36;;;;;;;34.93;14.60;;;7.00;99.90;;;;;;5089565;28;20294;-73
2023/02/24 00:29:05;;;;;;;35.57;14.73;;;7.00;99.90;;;;;;5109465;28;20229;-73
2023/02/24 00:31:33;;;;;;;26.77;10.77;;;7.10;99.90;;;;;;5106067;28;20195;-73
2023/02/24 00:34:01;;;;;;;20.50;9.43;;;7.00;99.90;;;;;;5089743;28;20199;-73
2023/02/24 00:36:32;;;;;;;16.00;7.73;;;7.00;99.90;;;;;;5100937;27;20305;-73
2023/02/24 00:39:02;;;;;;;14.77;7.30;;;6.90;99.90;;;;;;5109847;28;20194;-73
2023/02/24 00:41:31;;;;;;;16.77;7.37;;;6.90;99.90;;;;;;5107022;28;20915;-73
2023/02/24 00:44:04;;;;;;;15.37;6.87;;;6.80;99.90;;;;;;5089143;28;20253;-73
2023/02/24 00:46:35;;;;;;;13.37;6.33;;;6.80;99.90;;;;;;5089268;28;20258;-73
2023/02/24 00:49:04;;;;;;;14.20;6.40;;;6.90;99.90;;;;;;5105562;27;20201;-73
2023/02/24 00:51:35;;;;;;;16.37;6.13;;;6.70;99.90;;;;;;5129934;27;20701;-73
2023/02/24 00:54:02;;;;;;;12.17;5.87;;;6.50;99.90;;;;;;5122795;27;20285;-73
2023/02/24 00:56:31;;;;;;;9.50;5.30;;;6.40;99.90;;;;;;5109519;28;20267;-72
2023/02/24 00:58:59;;;;;;;14.97;5.20;;;6.30;99.90;;;;;;5109305;28;20230;-72
2023/02/24 01:01:29;;;;;;;10.20;4.80;;;6.20;99.90;;;;;;5109238;28;20202;-73
2023/02/24 01:03:58;;;;;;;11.83;4.63;;;6.20;99.90;;;;;;5109007;28;20198;-72
2023/02/24 01:06:28;;;;;;;11.17;4.33;;;6.10;99.90;;;;;;5100008;28;20862;-72
2023/02/24 01:08:56;;;;;;;9.03;4.07;;;6.20;99.90;;;;;;5088877;28;20425;-72
2023/02/24 01:14:13;;;;;;;9.53;3.13;;;6.10;99.90;;;;;;5109064;28;20193;-72
2023/02/24 01:16:40;;;;;;;9.53;3.50;;;6.00;99.90;;;;;;5118554;27;20215;-72
2023/02/24 01:19:09;;;;;;;11.17;3.87;;;5.90;99.90;;;;;;5117970;27;20667;-73
2023/02/24 01:21:36;;;;;;;9.20;2.97;;;5.90;99.90;;;;;;5126607;27;20701;-71
2023/02/24 01:24:03;;;;;;;9.53;2.77;;;5.90;99.90;;;;;;5108604;28;20205;-71
2023/02/24 01:26:30;;;;;;;14.40;3.47;;;6.00;99.90;;;;;;5108524;28;20297;-71
2023/02/24 01:28:57;;;;;;;8.60;3.43;;;5.90;99.90;;;;;;5108650;28;21130;-72
2023/02/24 01:31:25;;;;;;;10.90;3.47;;;5.90;99.90;;;;;;5108021;28;20264;-72
2023/02/24 01:33:52;;;;;;;11.63;3.33;;;5.90;99.90;;;;;;5108974;28;20301;-73
2023/02/24 01:36:22;;;;;;;11.07;2.97;;;5.80;99.90;;;;;;5108855;28;20289;-73
2023/02/24 01:38:49;;;;;;;7.77;2.27;;;5.90;99.90;;;;;;5108253;28;20233;-73
2023/02/24 01:41:19;;;;;;;9.97;2.50;;;5.80;99.90;;;;;;5108652;28;20292;-73
2023/02/24 01:43:57;;;;;;;8.67;2.37;;;5.90;99.90;;;;;;5088050;28;20650;-73
2023/02/24 01:46:25;;;;;;;9.13;2.67;;;5.80;99.90;;;;;;5088054;28;20230;-72
2023/02/24 01:48:53;;;;;;;6.83;2.23;;;5.80;99.90;;;;;;5102159;27;20220;-71
2023/02/24 01:51:22;;;;;;;9.70;2.60;;;5.90;99.90;;;;;;5129054;27;20264;-72
2023/02/24 01:53:49;;;;;;;11.07;2.83;;;5.80;99.90;;;;;;5126212;27;20262;-71
2023/02/24 01:56:16;;;;;;;6.03;1.90;;;5.80;99.90;;;;;;5108468;28;20210;-71
2023/02/24 01:58:43;;;;;;;9.10;2.37;;;5.80;99.90;;;;;;5108140;28;20230;-72
2023/02/24 02:01:13;;;;;;;9.60;2.30;;;5.90;99.90;;;;;;5107460;28;20952;-71
2023/02/24 02:03:42;;;;;;;11.60;2.83;;;5.80;99.90;;;;;;5108463;28;20213;-71
2023/02/24 02:06:11;;;;;;;11.43;3.27;;;5.80;99.90;;;;;;5101727;28;20255;-71
2023/02/24 02:08:42;;;;;;;10.67;2.70;;;5.60;99.90;;;;;;5087540;28;20243;-71
2023/02/24 02:11:11;;;;;;;9.23;2.13;;;5.60;99.90;;;;;;5087976;28;20254;-71
2023/02/24 02:13:42;;;;;;;9.93;2.17;;;5.50;99.90;;;;;;5112754;28;20202;-71
2023/02/24 02:16:28;;;;;;;7.20;1.73;;;5.40;99.90;;;;;;5108365;28;20194;-71
2023/02/24 02:19:13;;;;;;;6.57;1.73;;;5.20;99.90;;;;;;5115478;28;20212;-71
2023/02/24 02:22:22;;;;;;;7.47;2.20;;;5.10;99.90;;;;;;5122383;27;20195;-73
2023/02/24 02:24:57;;;;;;;7.30;1.97;;;5.20;99.90;;;;;;5099818;28;20292;-73
2023/02/24 02:27:44;;;;;;;8.87;2.50;;;5.20;99.90;;;;;;5107822;28;20767;-73
2023/02/24 02:30:27;;;;;;;7.97;1.83;;;5.00;99.90;;;;;;5089716;28;20716;-72
2023/02/24 02:33:30;;;;;;;5.63;1.50;;;5.00;99.90;;;;;;5097005;28;20587;-72
2023/02/24 02:36:12;;;;;;;9.83;2.27;;;5.00;99.90;;;;;;5061320;28;20198;-73
2023/02/24 02:38:50;;;;;;;8.53;2.40;;;5.00;99.90;;;;;;5107639;28;20235;-73
2023/02/24 02:41:24;;;;;;;8.43;2.57;;;4.90;99.90;;;;;;5107823;28;20700;-73
2023/02/24 02:43:56;;;;;;;9.23;2.13;;;4.90;99.90;;;;;;5107422;28;20850;-72
2023/02/24 02:46:34;;;;;;;6.93;2.00;;;4.90;99.90;;;;;;5107915;28;20249;-71
2023/02/24 02:49:09;;;;;;;5.60;1.70;;;4.80;99.90;;;;;;5115811;28;20213;-73
2023/02/24 02:51:42;;;;;;;7.93;2.10;;;4.80;99.90;;;;;;5127947;27;20736;-72
2023/02/24 02:54:17;;;;;;;7.77;1.90;;;4.70;99.90;;;;;;5120994;27;20202;-73
2023/02/24 02:56:50;;;;;;;5.93;1.97;;;4.60;99.90;;;;;;5107441;28;20638;-72
2023/02/24 02:59:22;;;;;;;4.93;1.80;;;4.60;99.90;;;;;;5107922;28;20202;-72
2023/02/24 03:01:54;;;;;;;6.00;1.53;;;4.60;99.90;;;;;;5107518;28;20194;-73
2023/02/24 03:04:24;;;;;;;9.70;2.07;;;4.60;99.90;;;;;;5107734;28;20186;-73
2023/02/24 03:06:56;;;;;;;6.63;1.93;;;4.60;99.90;;;;;;5107987;28;20210;-71
2023/02/24 03:09:28;;;;;;;6.37;1.80;;;4.70;99.90;;;;;;5117784;28;20233;-71
2023/02/24 03:11:59;;;;;;;5.80;2.10;;;4.60;99.90;;;;;;5108204;28;20218;-71
2023/02/24 03:14:32;;;;;;;7.57;1.73;;;4.60;99.90;;;;;;5111516;28;20193;-73
2023/02/24 03:17:03;;;;;;;6.60;2.00;;;4.60;99.90;;;;;;5111526;28;20198;-73
2023/02/24 03:19:36;;;;;;;6.90;1.77;;;4.50;99.90;;;;;;5123315;27;20219;-73
2023/02/24 03:22:11;;;;;;;8.23;1.90;;;4.60;99.90;;;;;;5131877;27;20250;-73
2023/02/24 03:24:39;;;;;;;8.90;2.07;;;4.60;99.90;;;;;;5115585;27;20251;-73
2023/02/24 03:27:11;;;;;;;7.43;2.57;;;4.50;99.90;;;;;;5110814;28;20206;-72
2023/02/24 03:29:44;;;;;;;9.57;2.80;;;4.60;99.90;;;;;;5111240;28;20550;-73
2023/02/24 03:32:17;;;;;;;15.80;2.07;;;4.60;99.90;;;;;;5095589;28;20321;-73
2023/02/24 03:34:50;;;;;;;5.03;2.03;;;4.60;99.90;;;;;;5110671;28;20777;-73
2023/02/24 03:37:24;;;;;;;9.10;1.90;;;4.60;99.90;;;;;;5111357;28;20190;-73
2023/02/24 03:39:53;;;;;;;7.33;2.30;;;4.60;99.90;;;;;;5110604;28;20684;-73
2023/02/24 03:42:21;;;;;;;5.07;2.03;;;4.60;99.90;;;;;;5110998;28;20198;-74
2023/02/24 03:44:49;;;;;;;9.10;2.13;;;4.60;99.90;;;;;;5110419;28;20748;-73
2023/02/24 03:47:19;;;;;;;4.13;1.80;;;4.60;99.90;;;;;;5106159;27;20211;-71
2023/02/24 03:49:46;;;;;;;11.43;2.47;;;4.60;99.90;;;;;;5119318;27;20209;-72
2023/02/24 03:52:24;;;;;;;10.93;2.60;;;4.50;99.90;;;;;;5128635;27;20325;-72
2023/02/24 03:55:12;;;;;;;10.13;2.53;;;4.50;99.90;;;;;;5111097;28;20301;-73
2023/02/24 03:57:58;;;;;;;4.67;2.07;;;4.50;99.90;;;;;;5110271;28;20355;-72
2023/02/24 04:00:34;;;;;;;8.63;2.40;;;4.50;99.90;;;;;;5110264;28;21049;-70
2023/02/24 04:03:14;;;;;;;11.07;2.70;;;4.50;99.90;;;;;;5110833;28;20201;-70
2023/02/24 04:05:46;;;;;;;9.67;2.67;;;4.50;99.90;;;;;;5109835;28;20201;-69
2023/02/24 04:08:19;;;;;;;7.73;2.80;;;4.50;99.90;;;;;;5109963;28;20675;-71
2023/02/24 04:10:52;;;;;;;10.47;2.50;;;4.40;99.90;;;;;;5097916;28;20222;-72
2023/02/24 04:13:34;;;;;;;9.23;2.53;;;4.50;99.90;;;;;;5107540;28;20194;-71
2023/02/24 04:16:07;;;;;;;11.10;2.43;;;4.40;99.90;;;;;;5108031;28;20221;-71
2023/02/24 04:18:35;;;;;;;7.37;2.10;;;4.40;99.90;;;;;;5111949;27;20297;-71
2023/02/24 04:21:04;;;;;;;7.13;1.90;;;4.40;99.90;;;;;;5112466;27;20826;-71
2023/02/24 04:23:38;;;;;;;4.53;1.83;;;4.40;99.90;;;;;;5106540;28;20251;-71
2023/02/24 04:26:06;;;;;;;6.07;2.13;;;4.40;99.90;;;;;;5108277;27;20592;-71
2023/02/24 04:28:35;;;;;;;5.87;2.07;;;4.40;99.90;;;;;;5107512;28;20262;-71
2023/02/24 04:31:08;;;;;;;6.90;2.33;;;4.30;99.90;;;;;;5097965;28;20506;-71
2023/02/24 04:33:37;;;;;;;8.37;2.40;;;4.40;99.90;;;;;;5087324;28;20649;-71
2023/02/24 04:36:07;;;;;;;7.77;2.30;;;4.40;99.90;;;;;;5103668;28;20579;-71
2023/02/24 04:38:36;;;;;;;6.77;2.07;;;4.30;99.90;;;;;;5107681;28;20206;-71
2023/02/24 04:41:03;;;;;;;8.03;2.03;;;4.30;99.90;;;;;;5108097;28;20210;-71
2023/02/24 04:43:31;;;;;;;7.50;2.40;;;4.40;99.90;;;;;;5108008;28;20252;-70
2023/02/24 04:45:58;;;;;;;5.80;2.20;;;4.40;99.90;;;;;;5108067;28;20669;-71
2023/02/24 04:48:24;;;;;;;6.73;2.20;;;4.40;99.90;;;;;;5108500;27;20645;-71
2023/02/24 04:50:53;;;;;;;3.97;1.87;;;4.40;99.90;;;;;;5108042;28;20233;-71
2023/02/24 04:53:25;;;;;;;7.80;2.03;;;4.40;99.90;;;;;;5107848;28;20203;-71
2023/02/24 04:55:55;;;;;;;6.27;1.87;;;4.30;99.90;;;;;;5107016;28;20273;-71
2023/02/24 04:58:26;;;;;;;6.53;1.70;;;4.20;99.90;;;;;;5107067;28;20683;-70
2023/02/24 05:00:54;;;;;;;4.47;1.77;;;4.20;99.90;;;;;;5094071;27;20209;-71
2023/02/24 05:03:27;;;;;;;4.83;1.83;;;4.20;99.90;;;;;;5107621;27;20205;-71
2023/02/24 05:05:56;;;;;;;9.70;2.00;;;4.20;99.90;;;;;;5095080;28;20616;-71
2023/02/24 05:08:25;;;;;;;5.87;1.77;;;4.20;99.90;;;;;;5107620;28;20213;-71
2023/02/24 05:10:55;;;;;;;10.17;1.83;;;4.10;99.90;;;;;;5102191;27;20228;-70
2023/02/24 05:13:26;;;;;;;3.50;1.50;;;4.20;99.90;;;;;;5129598;27;20550;-71
2023/02/24 05:15:53;;;;;;;3.60;1.80;;;4.10;99.90;;;;;;5121145;27;20209;-70
2023/02/24 05:18:22;;;;;;;5.20;1.77;;;4.10;99.90;;;;;;5102511;27;20251;-71
2023/02/24 05:23:38;;;;;;;4.93;1.60;;;4.20;99.90;;;;;;5098723;28;20282;-71
2023/02/24 05:26:08;;;;;;;9.23;1.97;;;4.20;99.90;;;;;;5100901;28;20206;-71
2023/02/24 05:28:36;;;;;;;3.77;1.33;;;4.10;99.90;;;;;;5095911;28;20283;-72
2023/02/24 05:31:08;;;;;;;7.37;1.77;;;4.10;99.90;;;;;;5107877;27;20313;-72
2023/02/24 05:33:37;;;;;;;5.03;1.60;;;4.20;99.90;;;;;;5096400;28;20241;-71
2023/02/24 05:36:07;;;;;;;2.57;1.17;;;4.10;99.90;;;;;;5100536;28;20577;-72
2023/02/24 05:38:36;;;;;;;5.80;2.00;;;4.10;99.90;;;;;;5096298;28;20202;-71
2023/02/24 05:41:13;;;;;;;5.07;1.53;;;4.10;99.90;;;;;;5099767;28;20229;-71
2023/02/24 05:43:40;;;;;;;6.60;1.70;;;4.10;99.90;;;;;;5094225;28;20240;-71
2023/02/24 05:46:07;;;;;;;9.03;2.13;;;4.10;99.90;;;;;;5097288;28;20261;-71
2023/02/24 05:48:34;;;;;;;5.27;1.57;;;4.00;99.90;;;;;;5105034;28;20628;-71
2023/02/24 05:51:02;;;;;;;7.00;1.60;;;4.00;99.90;;;;;;5103105;27;20670;-71
2023/02/24 05:53:30;;;;;;;6.77;1.47;;;4.00;99.90;;;;;;5101097;28;20206;-71
2023/02/24 05:56:01;;;;;;;5.53;1.50;;;4.00;99.90;;;;;;5103772;28;20213;-72
2023/02/24 05:58:29;;;;;;;5.77;1.50;;;4.00;99.90;;;;;;5104568;27;20225;-71
2023/02/24 06:00:57;;;;;;;7.63;1.47;;;4.00;99.90;;;;;;5100592;28;20232;-72
2023/02/24 06:03:29;;;;;;;4.43;1.43;;;4.00;99.90;;;;;;5096411;28;20337;-72
2023/02/24 06:06:04;;;;;;;4.20;1.50;;;4.00;99.90;;;;;;5098467;28;20214;-72
2023/02/24 06:08:40;;;;;;;2.83;1.07;;;4.00;99.90;;;;;;5099069;28;20296;-72
2023/02/24 06:11:09;;;;;;;3.50;1.30;;;4.00;99.90;;;;;;5099765;28;20224;-72
2023/02/24 06:13:37;;;;;;;4.63;1.20;;;3.90;99.90;;;;;;5097787;28;20195;-72
2023/02/24 06:16:05;;;;;;;2.83;1.00;;;3.90;99.90;;;;;;5097900;28;20289;-72
2023/02/24 06:18:32;;;;;;;5.47;1.90;;;3.90;99.90;;;;;;5101284;28;20284;-72
2023/02/24 06:21:01;;;;;;;4.03;1.33;;;3.90;99.90;;;;;;5098469;28;20273;-72
2023/02/24 06:23:28;;;;;;;5.13;1.30;;;4.00;99.90;;;;;;5099479;28;20655;-72
2023/02/24 06:25:56;;;;;;;5.17;1.43;;;3.90;99.90;;;;;;5100619;28;20228;-70
2023/02/24 06:28:24;;;;;;;5.23;1.23;;;3.90;99.90;;;;;;5097310;28;21078;-71
2023/02/24 06:30:52;;;;;;;4.87;1.50;;;3.90;99.90;;;;;;5099452;28;20201;-72
2023/02/24 06:33:25;;;;;;;5.77;1.40;;;4.00;99.90;;;;;;5099963;28;20243;-71
2023/02/24 06:35:52;;;;;;;5.30;1.63;;;4.00;99.90;;;;;;5100113;28;20205;-71
2023/02/24 06:38:19;;;;;;;8.63;1.50;;;4.00;99.90;;;;;;5094906;28;20205;-71
2023/02/24 06:40:46;;;;;;;5.27;1.63;;;3.90;99.90;;;;;;5103706;28;20207;-71
2023/02/24 06:43:13;;;;;;;7.20;1.67;;;4.00;99.90;;;;;;5097062;28;20231;-71
2023/02/24 06:45:44;;;;;;;7.07;2.07;;;4.00;99.90;;;;;;5107405;27;20316;-71
2023/02/24 06:48:12;;;;;;;5.13;1.67;;;4.00;99.90;;;;;;5114947;27;20272;-71
2023/02/24 06:50:39;;;;;;;3.00;1.40;;;3.90;99.90;;;;;;5127481;27;20244;-71
2023/02/24 06:53:15;;;;;;;3.33;1.37;;;3.90;99.90;;;;;;5111448;27;20233;-71
2023/02/24 06:55:45;;;;;;;6.57;1.40;;;3.90;99.90;;;;;;5103893;28;20289;-71
2023/02/24 06:58:16;;;;;;;6.57;1.50;;;3.90;99.90;;;;;;5102182;28;20203;-71
2023/02/24 07:00:55;;;;;;;3.17;1.30;;;4.00;99.90;;;;;;5102244;28;20193;-71
2023/02/24 07:03:38;;;;;;;4.43;1.33;;;3.90;99.90;;;;;;5108334;27;20190;-71
2023/02/24 07:06:19;;;;;;;3.60;1.27;;;3.90;99.90;;;;;;5104448;28;20573;-71
2023/02/24 07:08:46;;;;;;;7.77;1.27;;;3.90;99.90;;;;;;5100079;28;20201;-71
2023/02/24 07:11:16;;;;;;;8.80;1.53;;;3.90;99.90;;;;;;5101890;27;20289;-71
2023/02/24 07:13:43;;;;;;;2.63;0.83;;;3.90;99.90;;;;;;5105578;28;20203;-71
2023/02/24 07:16:10;;;;;;;5.47;1.37;;;3.80;99.90;;;;;;5099430;28;20394;-71
2023/02/24 07:18:40;;;;;;;2.97;1.30;;;3.90;99.90;;;;;;5107301;27;20202;-72
2023/02/24 07:21:10;;;;;;;5.37;1.40;;;3.90;99.90;;;;;;5104701;27;20205;-71
2023/02/24 07:23:37;;;;;;;4.33;1.70;;;3.80;99.90;;;;;;5099526;28;20206;-71
2023/02/24 07:26:10;;;;;;;4.40;1.37;;;3.90;99.90;;;;;;5101004;28;20716;-71
2023/02/24 07:28:39;;;;;;;3.83;1.60;;;3.90;99.90;;;;;;5098381;28;20333;-71
2023/02/24 07:31:08;;;;;;;5.67;2.10;;;3.90;99.90;;;;;;5104563;28;20740;-71
2023/02/24 07:33:36;;;;;;;2.63;1.30;;;3.90;99.90;;;;;;5100607;28;20200;-71
2023/02/24 07:36:08;;;;;;;5.53;1.70;;;3.90;99.90;;;;;;5104044;27;20286;-71
2023/02/24 07:38:37;;;;;;;3.97;1.67;;;3.80;99.90;;;;;;5099488;27;20194;-71
2023/02/24 07:41:06;;;;;;;2.40;1.77;;;3.90;99.90;;;;;;5101158;27;20197;-71
2023/02/24 07:43:34;;;;;;;2.67;1.70;;;3.90;99.90;;;;;;5100524;28;20420;-71
2023/02/24 07:46:07;;;;;;;2.73;1.20;;;3.90;99.90;;;;;;5102738;27;20232;-71
2023/02/24 07:48:35;;;;;;;4.40;1.30;;;3.90;99.90;;;;;;5098654;28;20320;-71
2023/02/24 07:51:05;;;;;;;3.67;1.33;;;3.90;99.90;;;;;;5103257;28;20202;-71
2023/02/24 07:53:34;;;;;;;2.93;1.60;;;3.90;99.90;;;;;;5100830;28;20301;-71
2023/02/24 07:56:05;;;;;;;2.60;1.40;;;4.10;99.90;;;;;;5106860;27;20608;-71
2023/02/24 07:58:33;;;;;;;2.63;1.23;;;4.00;99.90;;;;;;5122962;27;20636;-71
2023/02/24 08:01:07;;;;;;;3.83;1.40;;;4.10;99.90;;;;;;5109597;28;20737;-71
2023/02/24 08:03:40;;;;;;;2.60;1.50;;;4.00;99.90;;;;;;5102358;28;20200;-71
2023/02/24 08:06:14;;;;;;;6.23;1.40;;;4.10;99.90;;;;;;5104669;27;20219;-71
2023/02/24 08:08:56;;;;;;;2.83;1.33;;;4.10;99.90;;;;;;5101498;28;20611;-71
2023/02/24 08:11:25;;;;;;;3.87;1.40;;;4.10;99.90;;;;;;5101572;28;20609;-71
2023/02/24 08:13:52;;;;;;;7.17;1.40;;;4.10;99.90;;;;;;5102533;27;20624;-71
2023/02/24 08:16:19;;;;;;;5.57;1.60;;;4.10;99.90;;;;;;5100580;28;20225;-71
2023/02/24 08:18:47;;;;;;;6.30;1.53;;;4.10;99.90;;;;;;5107416;27;20203;-72
2023/02/24 08:21:15;;;;;;;4.70;1.33;;;4.10;99.90;;;;;;5100882;27;20205;-71
2023/02/24 08:23:44;;;;;;;2.30;1.60;;;4.20;99.90;;;;;;5107924;27;20209;-71
2023/02/24 08:26:11;;;;;;;3.83;1.53;;;4.20;99.90;;;;;;5103950;27;20205;-71
2023/02/24 08:28:39;;;;;;;6.67;1.47;;;4.30;99.90;;;;;;5098953;28;20712;-71
2023/02/24 08:31:06;;;;;;;5.83;1.67;;;4.30;99.90;;;;;;5099955;28;20195;-71
2023/02/24 08:33:36;;;;;;;3.30;1.67;;;4.40;99.90;;;;;;5109096;27;20313;-71
2023/02/24 08:36:03;;;;;;;3.90;1.60;;;4.40;99.90;;;;;;5108696;28;20255;-71
2023/02/24 08:38:40;;;;;;;3.07;1.63;;;4.50;99.90;;;;;;5106617;28;20209;-71
2023/02/24 08:41:16;;;;;;;4.23;1.87;;;4.50;99.90;;;;;;5098562;27;20869;-71
2023/02/24 08:43:46;;;;;;;7.17;1.40;;;4.40;99.90;;;;;;5098486;28;20193;-72
2023/02/24 08:46:19;;;;;;;4.00;1.97;;;4.40;99.90;;;;;;5107312;27;20257;-72
2023/02/24 08:48:49;;;;;;;4.77;1.70;;;4.40;99.90;;;;;;5104093;27;20206;-71
2023/02/24 08:51:21;;;;;;;4.57;2.10;;;4.40;99.90;;;;;;5100247;28;20241;-71
2023/02/24 08:53:51;;;;;;;7.00;2.17;;;4.50;99.90;;;;;;5095322;27;20226;-71
2023/02/24 08:56:26;;;;;;;4.07;2.10;;;4.50;99.90;;;;;;5102531;27;20193;-71
2023/02/24 08:58:56;;;;;;;4.57;1.67;;;4.40;99.90;;;;;;5097027;28;20183;-72
2023/02/24 09:01:26;;;;;;;5.60;2.10;;;4.40;99.90;;;;;;5099572;28;20289;-71
2023/02/24 09:03:56;;;;;;;3.23;1.60;;;4.40;99.90;;;;;;5099610;28;20218;-70
2023/02/24 09:06:34;;;;;;;4.90;2.23;;;4.50;99.90;;;;;;5101559;27;20284;-70
2023/02/24 09:09:17;;;;;;;6.80;2.10;;;4.50;99.90;;;;;;5102267;28;20210;-71
2023/02/24 09:11:46;;;;;;;3.17;1.80;;;4.40;99.90;;;;;;5098395;28;20218;-71
2023/02/24 09:14:16;;;;;;;6.63;2.33;;;4.50;99.90;;;;;;5097355;28;20285;-71
2023/02/24 09:17:00;;;;;;;8.67;1.70;;;4.60;99.90;;;;;;5101280;28;20210;-71
2023/02/24 09:20:14;;;;;;;4.50;1.67;;;4.60;99.90;;;;;;5101456;27;20687;-71
2023/02/24 09:22:31;;;;;;;5.73;1.93;;;4.60;99.90;;;;;;5098091;28;20286;-71
2023/02/24 09:25:17;;;;;;;2.63;1.33;;;4.60;99.90;;;;;;5101313;27;20202;-71
2023/02/24 09:27:51;;;;;;;2.30;1.40;;;4.50;99.90;;;;;;5095794;28;20632;-71
2023/02/24 09:30:35;;;;;;;2.90;1.67;;;4.50;99.90;;;;;;5100904;28;21020;-71
2023/02/24 09:33:16;;;;;;;4.20;1.90;;;4.60;99.90;;;;;;5096433;28;20307;-72
2023/02/24 09:35:48;;;;;;;3.13;1.50;;;4.60;99.90;;;;;;5098116;28;20626;-71
2023/02/24 09:38:17;;;;;;;2.03;1.50;;;4.60;99.90;;;;;;5097234;28;20708;-71
2023/02/24 09:40:51;;;;;;;3.30;1.70;;;4.60;99.90;;;;;;5096293;28;20198;-71
2023/02/24 09:43:23;;;;;;;1.80;1.33;;;4.70;99.90;;;;;;5105006;27;20206;-72
2023/02/24 09:45:57;;;;;;;4.43;1.50;;;4.80;99.90;;;;;;5102556;27;20312;-71
2023/02/24 09:48:31;;;;;;;4.80;1.70;;;4.80;99.90;;;;;;5099987;28;20205;-71
2023/02/24 09:51:02;;;;;;;3.37;1.60;;;4.80;99.90;;;;;;5097798;28;20879;-71
2023/02/24 09:53:37;;;;;;;3.77;1.30;;;4.80;99.90;;;;;;5101213;27;20247;-71
2023/02/24 09:56:14;;;;;;;5.83;1.47;;;4.80;99.90;;;;;;5099936;28;20254;-71
2023/02/24 09:58:47;;;;;;;2.60;1.37;;;4.80;99.90;;;;;;5096530;28;20198;-71
2023/02/24 10:01:42;;;;;;;3.77;1.30;;;4.90;99.90;;;;;;5107482;28;20286;-71
2023/02/24 10:04:26;;;;;;;4.40;1.60;;;4.90;99.90;;;;;;5096819;28;20642;-71
2023/02/24 10:06:58;;;;;;;3.37;1.50;;;4.90;99.90;;;;;;5093339;28;20194;-71
2023/02/24 10:09:33;;;;;;;5.33;1.30;;;4.90;99.90;;;;;;5105959;28;20639;-71
2023/02/24 10:12:04;;;;;;;2.87;1.23;;;4.90;99.90;;;;;;5103718;28;20205;-71
2023/02/24 10:14:39;;;;;;;7.73;1.63;;;4.80;99.90;;;;;;5104116;28;20210;-71
2023/02/24 10:17:24;;;;;;;2.60;1.20;;;4.80;99.90;;;;;;5106062;28;20297;-71
2023/02/24 10:19:59;;;;;;;5.23;1.47;;;4.90;99.90;;;;;;5107272;28;20210;-71
2023/02/24 10:22:49;;;;;;;2.00;1.10;;;4.90;99.90;;;;;;5117809;28;20763;-71
2023/02/24 10:25:41;;;;;;;4.67;1.20;;;4.90;99.90;;;;;;5093673;28;20208;-72
2023/02/24 10:28:24;;;;;;;3.60;1.30;;;4.90;99.90;;;;;;5100871;27;20279;-71
2023/02/24 10:31:08;;;;;;;2.80;1.30;;;5.00;99.90;;;;;;5105872;28;20344;-71
2023/02/24 10:33:37;;;;;;;3.93;1.10;;;5.00;99.90;;;;;;5107057;28;20661;-71
2023/02/24 10:36:07;;;;;;;4.70;1.27;;;5.00;99.90;;;;;;5098710;28;20291;-71
2023/02/24 10:38:35;;;;;;;4.67;1.50;;;4.90;99.90;;;;;;5105456;28;20193;-71
2023/02/24 10:41:05;;;;;;;2.23;1.03;;;4.90;99.90;;;;;;5113934;27;20245;-70
2023/02/24 10:43:44;;;;;;;1.63;1.13;;;4.80;99.90;;;;;;5106111;28;20213;-71
2023/02/24 10:46:32;;;;;;;4.77;1.60;;;4.70;99.90;;;;;;5089489;28;20284;-71
2023/02/24 10:49:00;;;;;;;2.23;1.13;;;4.70;99.90;;;;;;5102482;28;20229;-71
2023/02/24 10:51:32;;;;;;;1.90;1.00;;;4.60;99.90;;;;;;5099007;28;20285;-71
2023/02/24 10:54:32;;;;;;;5.97;1.30;;;4.50;99.90;;;;;;5098698;28;20755;-71
2023/02/24 10:57:17;;;;;;;3.77;1.20;;;4.40;99.90;;;;;;5095286;28;20618;-71
2023/02/24 11:00:19;;;;;;;2.40;1.23;;;4.30;99.90;;;;;;5104254;28;20199;-71
2023/02/24 11:05:43;;;;;;;3.03;1.50;;;3.90;99.90;;;;;;5105876;27;20229;-71
2023/02/24 11:08:35;;;;;;;5.10;0.93;;;3.80;99.90;;;;;;5104816;28;20198;-71
2023/02/24 11:11:07;;;;;;;6.50;1.20;;;3.70;99.90;;;;;;5103114;28;20725;-71
2023/02/24 11:19:21;;;;;;;4.20;1.40;;;3.50;99.90;;;;;;5037577;28;20572;-71
2023/02/24 11:21:48;;;;;;;2.47;1.40;;;3.50;99.90;;;;;;5034349;28;20655;-71
2023/02/24 11:24:18;;;;;;;3.63;1.40;;;3.50;99.90;;;;;;5057851;28;20295;-71
2023/02/24 11:26:47;;;;;;;4.40;1.50;;;3.50;99.90;;;;;;5095587;28;20209;-71
2023/02/24 11:29:29;;;;;;;3.97;1.40;;;3.40;99.90;;;;;;5092565;28;20231;-71
2023/02/24 11:32:21;;;;;;;2.37;1.43;;;3.30;99.90;;;;;;5105523;28;20243;-71
2023/02/24 11:34:57;;;;;;;5.87;1.70;;;3.30;99.90;;;;;;5110710;27;20249;-71
2023/02/24 11:37:36;;;;;;;8.80;1.43;;;3.20;99.90;;;;;;5109744;28;20206;-71
2023/02/24 11:40:08;;;;;;;1.73;1.47;;;3.20;99.90;;;;;;5105683;28;20267;-71
2023/02/24 11:42:40;;;;;;;4.07;1.57;;;3.10;99.90;;;;;;5109900;28;20198;-71
2023/02/24 11:45:15;;;;;;;4.47;1.50;;;3.10;99.90;;;;;;5107551;28;20321;-71
2023/02/24 11:47:47;;;;;;;2.47;1.20;;;3.10;99.90;;;;;;5100844;28;20296;-71
2023/02/24 11:50:28;;;;;;;5.13;1.50;;;3.10;99.90;;;;;;5110273;27;20561;-71
2023/02/24 11:52:58;;;;;;;3.50;1.40;;;3.10;99.90;;;;;;5103140;27;20222;-71
2023/02/24 11:55:33;;;;;;;3.90;1.47;;;3.10;99.90;;;;;;5110088;28;20209;-71
2023/02/24 11:58:05;;;;;;;2.60;1.10;;;3.20;99.90;;;;;;5110785;27;20198;-71
2023/02/24 12:00:37;;;;;;;5.80;1.30;;;3.10;99.90;;;;;;5106449;28;20243;-71
2023/02/24 12:03:11;;;;;;;6.57;1.60;;;3.10;99.90;;;;;;5100749;28;20285;-70
2023/02/24 12:05:43;;;;;;;2.57;1.30;;;3.10;99.90;;;;;;5102621;27;20202;-70
2023/02/24 12:08:21;;;;;;;2.00;1.47;;;3.10;99.90;;;;;;5094704;28;20195;-70
2023/02/24 12:10:51;;;;;;;2.13;1.50;;;3.00;99.90;;;;;;5098447;28;20233;-70
2023/02/24 12:13:28;;;;;;;2.97;1.83;;;3.00;99.90;;;;;;5099341;28;20295;-70
2023/02/24 12:15:59;;;;;;;5.03;1.73;;;3.00;99.90;;;;;;5103813;27;20282;-70
2023/02/24 12:18:33;;;;;;;3.27;1.30;;;2.90;99.90;;;;;;5122837;27;20260;-70
2023/02/24 12:21:07;;;;;;;3.67;1.83;;;2.90;99.90;;;;;;5110248;28;20194;-70
2023/02/24 12:23:38;;;;;;;2.90;1.50;;;3.00;99.90;;;;;;5123653;27;20205;-70
2023/02/24 12:26:16;;;;;;;2.00;1.40;;;3.00;99.90;;;;;;5128630;27;20667;-70
2023/02/24 12:29:08;;;;;;;2.33;1.10;;;3.10;99.90;;;;;;5111124;27;20269;-70
2023/02/24 12:31:41;;;;;;;3.93;1.53;;;3.10;99.90;;;;;;5117332;27;20448;-70
2023/02/24 12:34:14;;;;;;;3.90;1.20;;;3.10;99.90;;;;;;5115839;27;20237;-70
2023/02/24 12:37:10;;;;;;;4.20;1.33;;;3.10;99.90;;;;;;5129926;27;20209;-70
2023/02/24 12:39:45;;;;;;;1.87;1.00;;;3.00;99.90;;;;;;5129220;27;20237;-70
2023/02/24 12:42:24;;;;;;;3.83;1.27;;;3.10;99.90;;;;;;5129299;27;20236;-70
2023/02/24 12:45:01;;;;;;;4.10;1.37;;;3.00;99.90;;;;;;5128439;27;20283;-70
2023/02/24 12:47:37;;;;;;;2.27;1.20;;;3.10;99.90;;;;;;5127583;27;20205;-70
2023/02/24 12:50:16;;;;;;;2.13;1.30;;;3.10;99.90;;;;;;5129463;27;20201;-70
2023/02/24 12:53:00;;;;;;;1.40;0.90;;;3.10;99.90;;;;;;5129180;27;20225;-70
2023/02/24 12:55:35;;;;;;;2.27;1.10;;;3.10;99.90;;;;;;5129677;27;20312;-70
2023/02/24 12:58:09;;;;;;;2.63;1.03;;;3.00;99.90;;;;;;5117337;27;20573;-70
2023/02/24 13:00:46;;;;;;;2.20;0.80;;;3.00;99.90;;;;;;5108802;28;20195;-70
2023/02/24 13:03:28;;;;;;;1.40;0.80;;;3.10;99.90;;;;;;5107160;27;21374;-69
2023/02/24 13:06:05;;;;;;;2.73;1.40;;;3.00;99.90;;;;;;5095660;28;20288;-70
2023/02/24 13:08:42;;;;;;;1.10;0.97;;;3.00;99.90;;;;;;5099536;28;20305;-69
2023/02/24 13:11:17;;;;;;;1.60;1.13;;;3.00;99.90;;;;;;5088671;28;20197;-69
2023/02/24 13:13:52;;;;;;;1.40;1.30;;;3.00;99.90;;;;;;5087993;28;20222;-69
2023/02/24 13:16:28;;;;;;;1.47;1.10;;;3.00;99.90;;;;;;5104887;28;20296;-69
2023/02/24 13:19:05;;;;;;;2.57;1.00;;;3.00;99.90;;;;;;5115955;27;20232;-69
2023/02/24 13:21:33;;;;;;;2.07;1.20;;;2.90;99.90;;;;;;5118612;27;20233;-70
2023/02/24 13:24:02;;;;;;;1.63;1.53;;;2.70;99.90;;;;;;5108507;28;20293;-67
2023/02/24 13:26:31;;;;;;;3.17;1.73;;;2.80;99.90;;;;;;5108771;28;20253;-70
2023/02/24 13:29:00;;;;;;;3.20;1.63;;;2.80;99.90;;;;;;5119763;27;20574;-68
2023/02/24 13:31:29;;;;;;;2.03;1.50;;;2.70;99.90;;;;;;5107820;28;20194;-68
2023/02/24 13:33:56;;;;;;;3.53;2.10;;;2.80;99.90;;;;;;5108443;28;20238;-68
2023/02/24 13:36:24;;;;;;;2.53;2.33;;;2.90;99.90;;;;;;5100679;28;20259;-69
2023/02/24 13:39:04;;;;;;;2.20;2.00;;;2.90;99.90;;;;;;5095826;28;20251;-68